sensor_id;sensor_type;location;lat;lon;timestamp;temperature;humidity
6186;DHT22;3126;52.738;8.316;2022-12-18T00:00:50;-10.10;99.90
6186;DHT22;3126;52.738;8.316;2022-12-18T00:05:51;-10.10;99.90
6186;DHT22;3126;52.738;8.316;2022-12-18T00:10:52;-10.10;99.90
6186;DHT22;3126;52.738;8.316;2022-12-18T00:15:53;-10.00;99.90
6186;DHT22;3126;52.738;8.316;2022-12-18T00:20:54;-10.00;99.90
6186;DHT22;3126;52.738;8.316;2022-12-18T00:25:54;-10.00;99.90
6186;DHT22;3126;52.738;8.316;2022-12-18T00:36:06;-10.10;99.90
6186;DHT22;3126;52.738;8.316;2022-12-18T00:41:10;-10.20;99.90
6186;DHT22;3126;52.738;8.316;2022-12-18T00:46:11;-10.20;99.90
6186;DHT22;3126;52.738;8.316;2022-12-18T00:51:12;-10.20;99.90
6186;DHT22;3126;52.738;8.316;2022-12-18T00:56:12;-10.20;99.90
6186;DHT22;3126;52.738;8.316;2022-12-18T01:01:13;-10.20;99.90
6186;DHT22;3126;52.738;8.316;2022-12-18T01:06:15;-10.20;99.90
6186;DHT22;3126;52.738;8.316;2022-12-18T01:11:18;-10.20;99.90
6186;DHT22;3126;52.738;8.316;2022-12-18T01:16:19;-10.20;99.90
6186;DHT22;3126;52.738;8.316;2022-12-18T01:21:20;-10.30;99.90
6186;DHT22;3126;52.738;8.316;2022-12-18T01:26:21;-10.40;99.90
6186;DHT22;3126;52.738;8.316;2022-12-18T01:31:23;-10.50;99.90
6186;DHT22;3126;52.738;8.316;2022-12-18T01:36:25;-10.50;99.90
6186;DHT22;3126;52.738;8.316;2022-12-18T01:41:28;-10.50;99.90
6186;DHT22;3126;52.738;8.316;2022-12-18T01:46:52;-10.50;99.90
6186;DHT22;3126;52.738;8.316;2022-12-18T01:51:52;-10.60;99.90
6186;DHT22;3126;52.738;8.316;2022-12-18T01:56:53;-10.60;99.90
6186;DHT22;3126;52.738;8.316;2022-12-18T02:01:54;-10.60;99.90
6186;DHT22;3126;52.738;8.316;2022-12-18T02:07:00;-10.60;99.90
6186;DHT22;3126;52.738;8.316;2022-12-18T02:17:16;-10.70;99.90
6186;DHT22;3126;52.738;8.316;2022-12-18T02:27:30;-10.70;99.90
6186;DHT22;3126;52.738;8.316;2022-12-18T02:32:34;-10.70;99.90
6186;DHT22;3126;52.738;8.316;2022-12-18T02:37:37;-10.70;99.90
6186;DHT22;3126;52.738;8.316;2022-12-18T02:42:39;-10.60;99.90
6186;DHT22;3126;52.738;8.316;2022-12-18T02:47:44;-10.60;99.90
6186;DHT22;3126;52.738;8.316;2022-12-18T02:53:04;-10.60;99.90
6186;DHT22;3126;52.738;8.316;2022-12-18T03:03:30;-10.50;99.90
6186;DHT22;3126;52.738;8.316;2022-12-18T03:08:40;-10.50;99.90
6186;DHT22;3126;52.738;8.316;2022-12-18T03:13:54;-10.50;99.90
6186;DHT22;3126;52.738;8.316;2022-12-18T03:19:04;-10.60;99.90
6186;DHT22;3126;52.738;8.316;2022-12-18T03:24:07;-10.60;99.90
6186;DHT22;3126;52.738;8.316;2022-12-18T03:29:12;-10.60;99.90
6186;DHT22;3126;52.738;8.316;2022-12-18T03:34:22;-10.60;99.90
6186;DHT22;3126;52.738;8.316;2022-12-18T03:39:24;-10.50;99.90
6186;DHT22;3126;52.738;8.316;2022-12-18T03:44:32;-10.40;99.90
6186;DHT22;3126;52.738;8.316;2022-12-18T03:55:11;-10.30;99.90
6186;DHT22;3126;52.738;8.316;2022-12-18T04:00:14;-10.20;99.90
6186;DHT22;3126;52.738;8.316;2022-12-18T04:05:16;-10.10;99.90
6186;DHT22;3126;52.738;8.316;2022-12-18T04:10:18;-10.10;99.90
6186;DHT22;3126;52.738;8.316;2022-12-18T04:15:18;-10.10;99.90
6186;DHT22;3126;52.738;8.316;2022-12-18T04:20:19;-10.00;99.90
6186;DHT22;3126;52.738;8.316;2022-12-18T04:25:19;-9.90;99.90
6186;DHT22;3126;52.738;8.316;2022-12-18T04:30:20;-9.80;99.90
6186;DHT22;3126;52.738;8.316;2022-12-18T04:35:21;-9.70;99.90
6186;DHT22;3126;52.738;8.316;2022-12-18T04:40:21;-9.80;99.90
6186;DHT22;3126;52.738;8.316;2022-12-18T04:45:22;-9.70;99.90
6186;DHT22;3126;52.738;8.316;2022-12-18T04:50:22;-9.60;99.90
6186;DHT22;3126;52.738;8.316;2022-12-18T04:55:26;-9.60;99.90
6186;DHT22;3126;52.738;8.316;2022-12-18T05:00:27;-9.40;99.90
6186;DHT22;3126;52.738;8.316;2022-12-18T05:05:28;-9.40;99.90
6186;DHT22;3126;52.738;8.316;2022-12-18T05:10:28;-9.40;99.90
6186;DHT22;3126;52.738;8.316;2022-12-18T05:15:30;-9.40;99.90
6186;DHT22;3126;52.738;8.316;2022-12-18T05:20:31;-9.40;99.90
6186;DHT22;3126;52.738;8.316;2022-12-18T05:25:32;-9.40;99.90
6186;DHT22;3126;52.738;8.316;2022-12-18T05:30:32;-9.40;99.90
6186;DHT22;3126;52.738;8.316;2022-12-18T05:35:33;-9.50;99.90
6186;DHT22;3126;52.738;8.316;2022-12-18T05:40:33;-9.50;99.90
6186;DHT22;3126;52.738;8.316;2022-12-18T05:45:37;-9.50;99.90
6186;DHT22;3126;52.738;8.316;2022-12-18T05:50:39;-9.50;99.90
6186;DHT22;3126;52.738;8.316;2022-12-18T05:55:41;-9.60;99.90
6186;DHT22;3126;52.738;8.316;2022-12-18T06:00:45;-9.80;99.90
6186;DHT22;3126;52.738;8.316;2022-12-18T06:05:45;-9.80;99.90
6186;DHT22;3126;52.738;8.316;2022-12-18T06:10:50;-9.80;99.90
6186;DHT22;3126;52.738;8.316;2022-12-18T06:15:52;-9.80;99.90
6186;DHT22;3126;52.738;8.316;2022-12-18T06:20:57;-9.90;99.90
6186;DHT22;3126;52.738;8.316;2022-12-18T06:25:57;-9.90;99.90
6186;DHT22;3126;52.738;8.316;2022-12-18T06:30:58;-9.90;99.90
6186;DHT22;3126;52.738;8.316;2022-12-18T06:36:11;-10.00;99.90
6186;DHT22;3126;52.738;8.316;2022-12-18T06:41:14;-10.10;99.90
6186;DHT22;3126;52.738;8.316;2022-12-18T06:46:15;-10.10;99.90
6186;DHT22;3126;52.738;8.316;2022-12-18T06:51:18;-10.10;99.90
6186;DHT22;3126;52.738;8.316;2022-12-18T06:56:19;-10.00;99.90
6186;DHT22;3126;52.738;8.316;2022-12-18T07:01:19;-10.10;99.90
6186;DHT22;3126;52.738;8.316;2022-12-18T07:06:22;-10.10;99.90
6186;DHT22;3126;52.738;8.316;2022-12-18T07:11:24;-10.10;99.90
6186;DHT22;3126;52.738;8.316;2022-12-18T07:16:25;-10.20;99.90
6186;DHT22;3126;52.738;8.316;2022-12-18T07:21:25;-10.30;99.90
6186;DHT22;3126;52.738;8.316;2022-12-18T07:26:26;-10.30;99.90
6186;DHT22;3126;52.738;8.316;2022-12-18T07:31:27;-10.30;99.90
6186;DHT22;3126;52.738;8.316;2022-12-18T07:36:27;-10.40;99.90
6186;DHT22;3126;52.738;8.316;2022-12-18T07:41:28;-10.40;99.90
6186;DHT22;3126;52.738;8.316;2022-12-18T07:46:28;-10.50;99.90
6186;DHT22;3126;52.738;8.316;2022-12-18T07:51:29;-10.50;99.90
6186;DHT22;3126;52.738;8.316;2022-12-18T07:56:30;-10.40;99.90
6186;DHT22;3126;52.738;8.316;2022-12-18T08:01:30;-10.30;99.90
6186;DHT22;3126;52.738;8.316;2022-12-18T08:06:31;-10.10;99.90
6186;DHT22;3126;52.738;8.316;2022-12-18T08:11:32;-10.00;99.90
6186;DHT22;3126;52.738;8.316;2022-12-18T08:16:32;-9.80;99.90
6186;DHT22;3126;52.738;8.316;2022-12-18T08:21:33;-9.50;99.90
6186;DHT22;3126;52.738;8.316;2022-12-18T08:26:34;-9.30;99.90
6186;DHT22;3126;52.738;8.316;2022-12-18T08:31:35;-9.10;99.90
6186;DHT22;3126;52.738;8.316;2022-12-18T08:36:35;-8.90;99.90
6186;DHT22;3126;52.738;8.316;2022-12-18T08:41:36;-8.80;99.90
6186;DHT22;3126;52.738;8.316;2022-12-18T08:46:39;-8.60;99.90
6186;DHT22;3126;52.738;8.316;2022-12-18T08:51:40;-8.40;99.90
6186;DHT22;3126;52.738;8.316;2022-12-18T08:56:40;-8.10;99.90
6186;DHT22;3126;52.738;8.316;2022-12-18T09:01:41;-7.90;99.90
6186;DHT22;3126;52.738;8.316;2022-12-18T09:06:42;-7.60;99.90
6186;DHT22;3126;52.738;8.316;2022-12-18T09:11:42;-7.40;99.90
6186;DHT22;3126;52.738;8.316;2022-12-18T09:16:43;-7.20;99.90
6186;DHT22;3126;52.738;8.316;2022-12-18T09:21:43;-7.00;99.90
6186;DHT22;3126;52.738;8.316;2022-12-18T09:26:44;-6.90;99.90
6186;DHT22;3126;52.738;8.316;2022-12-18T09:31:45;-6.80;99.90
6186;DHT22;3126;52.738;8.316;2022-12-18T09:36:45;-6.70;99.90
6186;DHT22;3126;52.738;8.316;2022-12-18T09:41:51;-6.50;99.90
6186;DHT22;3126;52.738;8.316;2022-12-18T09:47:12;-6.30;99.90
6186;DHT22;3126;52.738;8.316;2022-12-18T09:52:25;-6.10;99.90
6186;DHT22;3126;52.738;8.316;2022-12-18T09:57:31;-5.90;99.90
6186;DHT22;3126;52.738;8.316;2022-12-18T10:08:15;-5.50;99.90
6186;DHT22;3126;52.738;8.316;2022-12-18T10:18:23;-5.20;99.90
6186;DHT22;3126;52.738;8.316;2022-12-18T10:23:43;-5.00;99.90
6186;DHT22;3126;52.738;8.316;2022-12-18T10:28:46;-4.80;99.90
6186;DHT22;3126;52.738;8.316;2022-12-18T10:33:46;-4.70;99.90
6186;DHT22;3126;52.738;8.316;2022-12-18T10:38:47;-4.50;99.90
6186;DHT22;3126;52.738;8.316;2022-12-18T10:43:48;-4.40;99.90
6186;DHT22;3126;52.738;8.316;2022-12-18T10:48:53;-4.30;99.90
6186;DHT22;3126;52.738;8.316;2022-12-18T10:54:05;-4.30;99.90
6186;DHT22;3126;52.738;8.316;2022-12-18T10:59:09;-4.20;99.90
6186;DHT22;3126;52.738;8.316;2022-12-18T11:04:17;-3.90;99.90
6186;DHT22;3126;52.738;8.316;2022-12-18T11:09:24;-3.50;99.90
6186;DHT22;3126;52.738;8.316;2022-12-18T11:14:30;-3.00;99.90
6186;DHT22;3126;52.738;8.316;2022-12-18T11:19:35;-2.70;99.90
6186;DHT22;3126;52.738;8.316;2022-12-18T11:24:37;-2.60;99.90
6186;DHT22;3126;52.738;8.316;2022-12-18T11:29:39;-2.70;99.90
6186;DHT22;3126;52.738;8.316;2022-12-18T11:34:44;-2.70;99.90
6186;DHT22;3126;52.738;8.316;2022-12-18T11:39:56;-2.70;99.80
6186;DHT22;3126;52.738;8.316;2022-12-18T11:50:17;-2.80;99.90
6186;DHT22;3126;52.738;8.316;2022-12-18T11:55:52;-2.80;99.90
6186;DHT22;3126;52.738;8.316;2022-12-18T12:17:14;-2.90;99.90
6186;DHT22;3126;52.738;8.316;2022-12-18T12:33:32;-2.90;99.90
6186;DHT22;3126;52.738;8.316;2022-12-18T12:38:51;-2.80;99.90
6186;DHT22;3126;52.738;8.316;2022-12-18T12:43:57;-2.80;99.90
6186;DHT22;3126;52.738;8.316;2022-12-18T12:49:02;-2.80;99.90
6186;DHT22;3126;52.738;8.316;2022-12-18T12:54:08;-2.80;99.90
6186;DHT22;3126;52.738;8.316;2022-12-18T13:04:34;-2.80;99.90
6186;DHT22;3126;52.738;8.316;2022-12-18T13:15:21;-2.70;99.90
6186;DHT22;3126;52.738;8.316;2022-12-18T13:25:39;-2.70;99.90
6186;DHT22;3126;52.738;8.316;2022-12-18T13:30:51;-2.80;99.90
6186;DHT22;3126;52.738;8.316;2022-12-18T13:36:01;-2.80;99.90
6186;DHT22;3126;52.738;8.316;2022-12-18T13:46:27;-2.80;99.90
6186;DHT22;3126;52.738;8.316;2022-12-18T13:51:31;-2.70;99.90
6186;DHT22;3126;52.738;8.316;2022-12-18T13:56:33;-2.70;99.90
6186;DHT22;3126;52.738;8.316;2022-12-18T14:01:34;-2.70;99.90
6186;DHT22;3126;52.738;8.316;2022-12-18T14:06:35;-2.70;99.90
6186;DHT22;3126;52.738;8.316;2022-12-18T14:11:36;-2.70;99.90
6186;DHT22;3126;52.738;8.316;2022-12-18T14:16:37;-2.80;99.90
6186;DHT22;3126;52.738;8.316;2022-12-18T14:21:38;-2.70;99.90
6186;DHT22;3126;52.738;8.316;2022-12-18T14:26:38;-2.80;99.90
6186;DHT22;3126;52.738;8.316;2022-12-18T14:31:39;-2.80;99.90
6186;DHT22;3126;52.738;8.316;2022-12-18T14:36:40;-2.80;99.90
6186;DHT22;3126;52.738;8.316;2022-12-18T14:41:40;-2.80;99.90
6186;DHT22;3126;52.738;8.316;2022-12-18T14:46:45;-2.90;99.90
6186;DHT22;3126;52.738;8.316;2022-12-18T14:51:49;-2.90;99.90
6186;DHT22;3126;52.738;8.316;2022-12-18T15:02:25;-3.00;99.90
6186;DHT22;3126;52.738;8.316;2022-12-18T15:07:38;-3.00;99.90
6186;DHT22;3126;52.738;8.316;2022-12-18T15:12:40;-3.10;99.90
6186;DHT22;3126;52.738;8.316;2022-12-18T15:17:41;-3.10;99.90
6186;DHT22;3126;52.738;8.316;2022-12-18T15:22:42;-3.20;99.90
6186;DHT22;3126;52.738;8.316;2022-12-18T15:27:46;-3.20;99.90
6186;DHT22;3126;52.738;8.316;2022-12-18T15:32:48;-3.20;99.90
6186;DHT22;3126;52.738;8.316;2022-12-18T15:37:50;-3.20;99.90
6186;DHT22;3126;52.738;8.316;2022-12-18T15:42:53;-3.20;99.80
6186;DHT22;3126;52.738;8.316;2022-12-18T15:48:21;-3.20;99.40
6186;DHT22;3126;52.738;8.316;2022-12-18T15:53:27;-3.20;99.00
6186;DHT22;3126;52.738;8.316;2022-12-18T15:58:29;-3.10;99.00
6186;DHT22;3126;52.738;8.316;2022-12-18T16:03:30;-3.10;98.90
6186;DHT22;3126;52.738;8.316;2022-12-18T16:08:31;-3.10;99.00
6186;DHT22;3126;52.738;8.316;2022-12-18T16:13:31;-3.10;98.50
6186;DHT22;3126;52.738;8.316;2022-12-18T16:18:32;-3.10;98.50
6186;DHT22;3126;52.738;8.316;2022-12-18T16:23:32;-3.00;97.90
6186;DHT22;3126;52.738;8.316;2022-12-18T16:28:33;-3.00;97.50
6186;DHT22;3126;52.738;8.316;2022-12-18T16:33:33;-3.00;96.90
6186;DHT22;3126;52.738;8.316;2022-12-18T16:38:34;-2.90;96.00
6186;DHT22;3126;52.738;8.316;2022-12-18T16:43:35;-2.90;95.40
6186;DHT22;3126;52.738;8.316;2022-12-18T16:48:35;-2.80;95.30
6186;DHT22;3126;52.738;8.316;2022-12-18T16:53:36;-2.80;94.90
6186;DHT22;3126;52.738;8.316;2022-12-18T16:58:36;-2.80;94.50
6186;DHT22;3126;52.738;8.316;2022-12-18T17:03:37;-2.70;93.90
6186;DHT22;3126;52.738;8.316;2022-12-18T17:08:37;-2.60;93.20
6186;DHT22;3126;52.738;8.316;2022-12-18T17:13:38;-2.60;92.40
6186;DHT22;3126;52.738;8.316;2022-12-18T17:18:39;-2.50;91.90
6186;DHT22;3126;52.738;8.316;2022-12-18T17:23:40;-2.40;91.40
6186;DHT22;3126;52.738;8.316;2022-12-18T17:28:41;-2.40;91.40
6186;DHT22;3126;52.738;8.316;2022-12-18T17:33:42;-2.30;90.80
6186;DHT22;3126;52.738;8.316;2022-12-18T17:38:52;-2.30;89.90
6186;DHT22;3126;52.738;8.316;2022-12-18T17:43:54;-2.20;89.20
6186;DHT22;3126;52.738;8.316;2022-12-18T17:48:56;-2.20;89.20
6186;DHT22;3126;52.738;8.316;2022-12-18T17:53:57;-2.20;88.20
6186;DHT22;3126;52.738;8.316;2022-12-18T17:58:57;-2.10;87.90
6186;DHT22;3126;52.738;8.316;2022-12-18T18:03:58;-2.00;86.90
6186;DHT22;3126;52.738;8.316;2022-12-18T18:08:59;-2.00;86.80
6186;DHT22;3126;52.738;8.316;2022-12-18T18:14:02;-1.90;86.20
6186;DHT22;3126;52.738;8.316;2022-12-18T18:19:07;-1.80;86.00
6186;DHT22;3126;52.738;8.316;2022-12-18T18:24:09;-1.80;86.10
6186;DHT22;3126;52.738;8.316;2022-12-18T18:29:17;-1.80;86.40
6186;DHT22;3126;52.738;8.316;2022-12-18T18:34:21;-1.70;85.10
6186;DHT22;3126;52.738;8.316;2022-12-18T18:39:22;-1.70;85.00
6186;DHT22;3126;52.738;8.316;2022-12-18T18:44:23;-1.70;84.80
6186;DHT22;3126;52.738;8.316;2022-12-18T18:49:25;-1.60;84.60
6186;DHT22;3126;52.738;8.316;2022-12-18T18:54:27;-1.60;84.50
6186;DHT22;3126;52.738;8.316;2022-12-18T18:59:27;-1.60;84.80
6186;DHT22;3126;52.738;8.316;2022-12-18T19:04:28;-1.60;84.40
6186;DHT22;3126;52.738;8.316;2022-12-18T19:09:28;-1.60;84.60
6186;DHT22;3126;52.738;8.316;2022-12-18T19:14:30;-1.50;84.20
6186;DHT22;3126;52.738;8.316;2022-12-18T19:19:31;-1.50;84.40
6186;DHT22;3126;52.738;8.316;2022-12-18T19:24:32;-1.50;84.60
6186;DHT22;3126;52.738;8.316;2022-12-18T19:29:32;-1.50;84.70
6186;DHT22;3126;52.738;8.316;2022-12-18T19:34:33;-1.50;84.80
6186;DHT22;3126;52.738;8.316;2022-12-18T19:39:34;-1.50;84.50
6186;DHT22;3126;52.738;8.316;2022-12-18T19:44:34;-1.50;84.10
6186;DHT22;3126;52.738;8.316;2022-12-18T19:49:35;-1.50;84.00
6186;DHT22;3126;52.738;8.316;2022-12-18T19:54:37;-1.40;83.50
6186;DHT22;3126;52.738;8.316;2022-12-18T19:59:38;-1.40;83.20
6186;DHT22;3126;52.738;8.316;2022-12-18T20:04:39;-1.40;83.30
6186;DHT22;3126;52.738;8.316;2022-12-18T20:09:40;-1.30;82.80
6186;DHT22;3126;52.738;8.316;2022-12-18T20:14:40;-1.30;82.90
6186;DHT22;3126;52.738;8.316;2022-12-18T20:19:41;-1.30;82.20
6186;DHT22;3126;52.738;8.316;2022-12-18T20:24:41;-1.20;82.20
6186;DHT22;3126;52.738;8.316;2022-12-18T20:29:42;-1.20;82.20
6186;DHT22;3126;52.738;8.316;2022-12-18T20:34:43;-1.20;82.20
6186;DHT22;3126;52.738;8.316;2022-12-18T20:39:43;-1.20;82.50
6186;DHT22;3126;52.738;8.316;2022-12-18T20:44:44;-1.20;82.50
6186;DHT22;3126;52.738;8.316;2022-12-18T20:49:45;-1.20;82.30
6186;DHT22;3126;52.738;8.316;2022-12-18T20:54:45;-1.20;82.50
6186;DHT22;3126;52.738;8.316;2022-12-18T20:59:46;-1.10;82.00
6186;DHT22;3126;52.738;8.316;2022-12-18T21:04:46;-1.10;81.70
6186;DHT22;3126;52.738;8.316;2022-12-18T21:09:47;-1.00;81.70
6186;DHT22;3126;52.738;8.316;2022-12-18T21:14:48;-1.00;81.70
6186;DHT22;3126;52.738;8.316;2022-12-18T21:19:48;-1.00;81.70
6186;DHT22;3126;52.738;8.316;2022-12-18T21:24:49;-1.00;82.00
6186;DHT22;3126;52.738;8.316;2022-12-18T21:29:49;-0.90;82.20
6186;DHT22;3126;52.738;8.316;2022-12-18T21:34:51;-0.90;82.40
6186;DHT22;3126;52.738;8.316;2022-12-18T21:39:52;-0.90;83.30
6186;DHT22;3126;52.738;8.316;2022-12-18T21:44:52;-0.90;83.30
6186;DHT22;3126;52.738;8.316;2022-12-18T21:49:53;-0.80;83.70
6186;DHT22;3126;52.738;8.316;2022-12-18T21:54:53;-0.80;84.30
6186;DHT22;3126;52.738;8.316;2022-12-18T21:59:54;-0.80;84.70
6186;DHT22;3126;52.738;8.316;2022-12-18T22:04:55;-0.80;85.20
6186;DHT22;3126;52.738;8.316;2022-12-18T22:09:55;-0.70;85.40
6186;DHT22;3126;52.738;8.316;2022-12-18T22:14:56;-0.70;85.50
6186;DHT22;3126;52.738;8.316;2022-12-18T22:19:56;-0.70;85.60
6186;DHT22;3126;52.738;8.316;2022-12-18T22:24:57;-0.70;85.90
6186;DHT22;3126;52.738;8.316;2022-12-18T22:29:57;-0.70;86.10
6186;DHT22;3126;52.738;8.316;2022-12-18T22:35:04;-0.70;86.20
6186;DHT22;3126;52.738;8.316;2022-12-18T22:40:05;-0.70;86.50
6186;DHT22;3126;52.738;8.316;2022-12-18T22:45:06;-0.60;86.60
6186;DHT22;3126;52.738;8.316;2022-12-18T22:50:11;-0.70;87.00
6186;DHT22;3126;52.738;8.316;2022-12-18T22:55:12;-0.70;87.00
6186;DHT22;3126;52.738;8.316;2022-12-18T23:00:13;-0.60;87.20
6186;DHT22;3126;52.738;8.316;2022-12-18T23:05:13;-0.60;87.30
6186;DHT22;3126;52.738;8.316;2022-12-18T23:10:14;-0.60;87.70
6186;DHT22;3126;52.738;8.316;2022-12-18T23:40:19;-0.60;87.70
6186;DHT22;3126;52.738;8.316;2022-12-18T23:45:20;-0.50;88.40
6186;DHT22;3126;52.738;8.316;2022-12-18T23:50:21;-0.50;89.40
6186;DHT22;3126;52.738;8.316;2022-12-18T23:55:21;-0.50;90.90
